Sapporo, Japan

8:43 AM JST on December 11, 2019 (GMT +0900)
Kaminopporo | | Change Station

Elev 180 ft 43.01 °N, 141.48 °E | Updated 15 seconds ago

Mostly Cloudy
Mostly Cloudy
42.4 °F
Feels Like 42 °F
N
0
Wind Variable Wind from South
Gusts 0.0 mph

Today
High -- | Low -- °F
--% Chance of Precip.
Yesterday
High -- | Low -- °F
Precip. -- in
Pressure 30.01 in
Visibility 0.5 miles
Clouds Few 300 ft
Windchill 42 °F
Dew Point 41 °F
Humidity 94%
Rainfall 0.00 in
Snow Depth Not available.
6:55 AM 3:59 PM
Waxing Gibbous, 98% visible
SPECI RJCC 102318Z VRB02KT 0800 R19R/0275V0400N R19L/0325V0650N FG FEW003 BKN/// 01/01 Q1016 RMK 1ST003 A3001
Pressure 30.01 in
Visibility 0.5 miles
Clouds Few 300 ft
Windchill 42 °F
Dew Point 41 °F
Humidity 94%
Rainfall 0.00 in
Snow Depth Not available.
6:55 AM 3:59 PM
Waxing Gibbous, 98% visible
SPECI RJCC 102318Z VRB02KT 0800 R19R/0275V0400N R19L/0325V0650N FG FEW003 BKN/// 01/01 Q1016 RMK 1ST003 A3001

Get Severe Weather Alerts

Thanks for signing up!

Be on the lookout for a verification email in your inbox.

You'll start receiving the daily forecast at 6 AM.

×

10-Day Weather Forecast

No radar image for this location.
×

Almanac

Astronomy

Dec. 11, 2019 Rise Set
Actual Time
Civil Twilight
Nautical Twilight
Astronomical Twilight
Moon
Length of Visible Light
Length of Day
Tomorrow will be .
, % of the Moon is Illuminated

Today's Extremes

Country Highs Country Lows

Community

WunderPhotos

Category 6

Welcome to Category 6. This is the collective home for Weather Underground's featured writeups by Dr. Jeff Masters (right), Bob Henson (left), Chris Burt, and other regular contributors.

Nearby

Air Quality

  Air Quality AQ Index Pollutant
Not available.

Snow Depth

Station Depth Elevation

Earthquake Activity

City Distance Mag. Time & Date
Minimum magnitude displayed is 2.5.

Coastal Water Temperatures

Place Temperature

Stations

Nearby Weather Stations

Station Location Temp. Windchill Dew Point Humidity Wind Precip. Elev Updated Type